createdAt,value
2018-07-02T00:01:10.857Z,57.20
2018-07-02T00:03:40.402Z,56.00
2018-07-02T00:06:35.919Z,56.00
2018-07-02T00:09:06.379Z,57.00
2018-07-02T00:11:35.980Z,56.60
2018-07-02T00:14:05.323Z,57.50
2018-07-02T00:16:34.483Z,57.50
2018-07-02T00:19:03.975Z,56.90
2018-07-02T00:21:33.152Z,55.70
2018-07-02T00:24:02.328Z,56.90
2018-07-02T00:26:31.435Z,56.60
2018-07-02T00:29:00.724Z,56.70
2018-07-02T00:31:29.858Z,56.70
2018-07-02T00:33:59.006Z,57.60
2018-07-02T00:36:28.182Z,56.90
2018-07-02T00:38:57.342Z,57.40
2018-07-02T00:41:26.946Z,57.90
2018-07-02T00:43:56.210Z,57.20
2018-07-02T00:46:25.352Z,59.10
2018-07-02T00:48:54.506Z,57.90
2018-07-02T00:51:23.760Z,57.70
2018-07-02T00:53:52.927Z,57.40
2018-07-02T00:56:22.411Z,58.10
2018-07-02T00:58:51.648Z,58.30
2018-07-02T01:01:21.523Z,58.10
2018-07-02T01:03:51.270Z,58.80
2018-07-02T01:06:20.882Z,58.30
2018-07-02T01:08:50.484Z,58.50
2018-07-02T01:11:19.946Z,58.60
2018-07-02T01:13:50.176Z,58.60
2018-07-02T01:16:19.673Z,58.80
2018-07-02T01:18:50.015Z,58.30
2018-07-02T01:21:19.860Z,59.00
2018-07-02T01:23:49.495Z,59.10
2018-07-02T01:26:18.646Z,58.70
2018-07-02T01:28:47.824Z,58.70
2018-07-02T01:31:17.006Z,59.10
2018-07-02T01:33:46.194Z,59.70
2018-07-02T01:36:15.390Z,59.20
2018-07-02T01:38:44.536Z,60.20
2018-07-02T01:41:13.682Z,60.00
2018-07-02T01:43:42.895Z,60.00
2018-07-02T01:46:12.061Z,59.90
2018-07-02T01:48:41.194Z,60.00
2018-07-02T01:51:10.509Z,60.30
2018-07-02T01:53:40.459Z,59.90
2018-07-02T01:56:09.970Z,59.60
2018-07-02T01:58:39.538Z,60.60
2018-07-02T02:01:09.128Z,60.10
2018-07-02T02:03:38.487Z,60.10
2018-07-02T02:06:07.932Z,59.90
2018-07-02T02:08:37.293Z,60.70
2018-07-02T02:11:06.869Z,61.20
2018-07-02T02:13:36.267Z,61.10
2018-07-02T02:16:05.809Z,61.70
2018-07-02T02:18:35.353Z,61.60
2018-07-02T02:21:04.678Z,61.70
2018-07-02T02:23:34.225Z,61.70
2018-07-02T02:26:03.695Z,61.90
2018-07-02T02:28:33.330Z,62.10
2018-07-02T02:31:02.941Z,62.20
2018-07-02T02:33:32.543Z,62.30
2018-07-02T02:36:02.122Z,62.30
2018-07-02T02:38:32.236Z,63.70
2018-07-02T02:41:01.694Z,63.40
2018-07-02T02:43:31.118Z,64.10
2018-07-02T02:46:01.209Z,62.30
2018-07-02T02:48:30.815Z,63.00
2018-07-02T02:51:00.179Z,63.40
2018-07-02T02:53:29.683Z,63.20
2018-07-02T02:55:59.119Z,63.50
2018-07-02T02:58:28.539Z,63.70
2018-07-02T03:00:58.055Z,64.10
2018-07-02T03:03:27.488Z,64.40
2018-07-02T03:05:56.942Z,64.00
2018-07-02T03:08:26.489Z,63.60
2018-07-02T03:10:55.981Z,65.50
2018-07-02T03:13:25.550Z,65.80
2018-07-02T03:15:55.098Z,67.50
2018-07-02T03:18:24.574Z,66.90
2018-07-02T03:20:54.483Z,66.70
2018-07-02T03:23:23.990Z,66.70
2018-07-02T03:25:53.124Z,66.90
2018-07-02T03:28:22.298Z,66.80
2018-07-02T03:30:51.498Z,66.30
2018-07-02T03:33:21.027Z,66.10
2018-07-02T03:35:50.173Z,65.80
2018-07-02T03:38:19.558Z,65.80
2018-07-02T03:40:49.055Z,65.60
2018-07-02T03:43:18.199Z,65.30
2018-07-02T03:45:47.459Z,65.50
2018-07-02T03:48:16.594Z,65.10
2018-07-02T03:50:45.779Z,65.70
2018-07-02T03:53:14.983Z,65.80
2018-07-02T03:55:44.122Z,65.70
2018-07-02T03:58:13.657Z,65.50
2018-07-02T04:00:42.786Z,65.30
2018-07-02T04:03:11.948Z,64.80
2018-07-02T04:05:41.080Z,61.50
2018-07-02T04:08:10.683Z,58.80
2018-07-02T04:10:39.843Z,55.40
2018-07-02T04:13:09.031Z,52.90
2018-07-02T04:15:38.256Z,50.30
2018-07-02T04:18:07.410Z,49.00
2018-07-02T04:20:36.545Z,47.40
2018-07-02T04:23:05.745Z,45.00
2018-07-02T04:25:35.392Z,44.50
2018-07-02T04:28:04.891Z,44.20
2018-07-02T04:30:34.449Z,42.50
2018-07-02T04:33:03.640Z,41.60
2018-07-02T04:35:32.753Z,40.80
2018-07-02T04:38:01.908Z,40.60
2018-07-02T04:40:31.271Z,39.80
2018-07-02T04:43:00.870Z,39.00
2018-07-02T04:45:30.872Z,37.40
2018-07-02T04:48:00.691Z,39.20
2018-07-02T04:52:59.065Z,37.20
2018-07-02T04:55:28.259Z,36.00
2018-07-02T04:57:57.418Z,35.40
2018-07-02T05:00:26.580Z,34.50
2018-07-02T05:02:55.750Z,35.10
2018-07-02T05:05:25.065Z,36.50
2018-07-02T05:07:54.228Z,34.40
2018-07-02T05:10:29.907Z,33.00
2018-07-02T05:12:59.492Z,32.70
2018-07-02T05:15:34.124Z,31.50
2018-07-02T05:18:03.629Z,30.10
2018-07-02T05:20:37.140Z,29.10
2018-07-02T05:23:06.425Z,28.40
2018-07-02T05:25:37.816Z,27.50
2018-07-02T05:28:12.324Z,27.50
2018-07-02T05:30:41.646Z,28.60
2018-07-02T05:33:11.999Z,27.90
2018-07-02T05:35:41.135Z,27.30
2018-07-02T05:38:12.416Z,27.40
2018-07-02T05:40:41.887Z,28.00
2018-07-02T05:43:11.063Z,27.20
2018-07-02T05:45:40.251Z,28.10
2018-07-02T05:48:10.439Z,30.00
2018-07-02T05:50:39.780Z,31.80
2018-07-02T05:55:37.557Z,32.00
2018-07-02T06:00:37.655Z,32.20
2018-07-02T06:03:06.863Z,33.60
2018-07-02T06:05:38.853Z,34.20
2018-07-02T06:08:11.695Z,35.10
2018-07-02T06:10:41.098Z,34.50
2018-07-02T06:13:13.984Z,36.30
2018-07-02T06:15:43.898Z,37.40
2018-07-02T06:18:13.286Z,37.50
2018-07-02T06:20:45.790Z,37.00
2018-07-02T06:23:15.234Z,37.10
2018-07-02T06:25:45.178Z,38.30
2018-07-02T06:28:14.564Z,37.20
2018-07-02T06:30:44.044Z,37.60
2018-07-02T06:33:13.502Z,35.30
2018-07-02T06:35:43.007Z,35.80
2018-07-02T06:38:12.570Z,35.50
2018-07-02T06:40:42.330Z,36.10
2018-07-02T06:43:11.899Z,37.10
2018-07-02T06:45:41.359Z,35.60
2018-07-02T06:48:10.622Z,37.00
2018-07-02T06:50:40.202Z,34.80
2018-07-02T06:53:09.742Z,35.00
2018-07-02T06:55:39.111Z,35.40
2018-07-02T06:58:09.000Z,35.50
2018-07-02T07:00:38.361Z,35.90
2018-07-02T07:03:07.902Z,36.10
2018-07-02T07:05:37.507Z,33.10
2018-07-02T07:08:07.350Z,34.20
2018-07-02T07:10:36.962Z,33.00
2018-07-02T07:13:06.462Z,35.10
2018-07-02T07:18:05.184Z,33.50
2018-07-02T07:23:03.785Z,34.10
2018-07-02T07:25:33.315Z,31.80
2018-07-02T07:28:02.779Z,31.10
2018-07-02T07:30:32.450Z,33.40
2018-07-02T07:33:01.843Z,32.50
2018-07-02T07:35:31.307Z,32.50
2018-07-02T07:38:00.806Z,32.60
2018-07-02T07:45:27.731Z,34.50
2018-07-02T07:47:57.160Z,33.80
2018-07-02T07:50:26.969Z,33.80
2018-07-02T07:53:12.449Z,32.10
2018-07-02T07:55:42.958Z,30.60
2018-07-02T07:58:12.067Z,32.80
2018-07-02T08:00:41.583Z,33.00
2018-07-02T08:03:11.089Z,32.80
2018-07-02T08:05:42.041Z,32.90
2018-07-02T08:08:11.821Z,32.60
2018-07-02T08:10:41.348Z,30.90
2018-07-02T08:13:11.184Z,31.10
2018-07-02T08:15:40.716Z,32.00
2018-07-02T08:18:10.250Z,30.40
2018-07-02T08:20:52.111Z,31.40
2018-07-02T08:26:06.879Z,30.50
2018-07-02T08:28:39.003Z,31.10
2018-07-02T08:31:08.429Z,33.50
2018-07-02T08:33:37.620Z,32.70
2018-07-02T08:36:07.267Z,32.30
2018-07-02T08:38:36.781Z,32.80
2018-07-02T08:41:06.328Z,31.60
2018-07-02T08:43:36.098Z,31.10
2018-07-02T08:46:05.863Z,32.90
2018-07-02T08:48:35.472Z,31.90
2018-07-02T08:51:04.997Z,32.10
2018-07-02T08:53:34.346Z,31.60
2018-07-02T08:56:03.727Z,31.70
2018-07-02T08:58:40.090Z,32.10
2018-07-02T09:01:09.436Z,32.70
2018-07-02T09:03:38.643Z,33.30
2018-07-02T09:06:07.830Z,31.90
2018-07-02T09:08:37.048Z,31.30
2018-07-02T09:11:06.272Z,32.30
2018-07-02T09:16:04.540Z,32.50
2018-07-02T09:18:34.012Z,32.60
2018-07-02T09:21:03.436Z,31.20
2018-07-02T09:23:32.762Z,32.20
2018-07-02T09:26:01.900Z,30.50
2018-07-02T09:28:31.018Z,30.10
2018-07-02T09:31:00.703Z,30.10
2018-07-02T09:33:29.856Z,32.60
2018-07-02T09:35:59.052Z,33.50
2018-07-02T09:38:28.241Z,32.00
2018-07-02T09:40:57.435Z,33.50
2018-07-02T09:43:26.711Z,33.60
2018-07-02T09:45:55.773Z,32.80
2018-07-02T09:48:24.960Z,30.50
2018-07-02T09:50:54.189Z,30.60
2018-07-02T09:53:23.833Z,33.80
2018-07-02T09:55:53.048Z,30.30
2018-07-02T09:58:22.214Z,30.90
2018-07-02T10:00:51.432Z,31.10
2018-07-02T10:03:20.581Z,32.20
2018-07-02T10:05:49.866Z,31.70
2018-07-02T10:10:47.660Z,32.90
2018-07-02T10:13:16.818Z,32.50
2018-07-02T10:15:46.488Z,31.70
2018-07-02T10:18:15.638Z,30.20
2018-07-02T10:20:44.767Z,29.80
2018-07-02T10:23:14.383Z,31.60
2018-07-02T10:25:44.558Z,30.00
2018-07-02T10:28:13.721Z,30.80
2018-07-02T10:30:42.932Z,31.70
2018-07-02T10:33:12.083Z,30.00
2018-07-02T10:35:41.208Z,30.00
2018-07-02T10:38:10.338Z,30.60
2018-07-02T10:40:39.520Z,30.10
2018-07-02T10:43:08.667Z,29.70
2018-07-02T10:45:38.174Z,30.00
2018-07-02T10:50:35.968Z,28.40
2018-07-02T10:53:05.204Z,29.00
2018-07-02T10:55:34.432Z,27.80
2018-07-02T10:58:04.182Z,30.10
2018-07-02T11:00:33.639Z,29.00
2018-07-02T11:03:02.836Z,29.10
2018-07-02T11:05:32.393Z,29.00
2018-07-02T11:08:01.554Z,30.00
2018-07-02T11:10:38.832Z,28.40
2018-07-02T11:13:13.547Z,30.90
2018-07-02T11:15:45.654Z,28.40
2018-07-02T11:20:44.528Z,29.20
2018-07-02T11:23:16.850Z,30.00
2018-07-02T11:25:56.566Z,29.90
2018-07-02T11:28:28.646Z,29.60
2018-07-02T11:30:58.871Z,30.50
2018-07-02T11:33:30.112Z,29.40
2018-07-02T11:38:30.681Z,28.00
2018-07-02T11:41:04.628Z,28.10
2018-07-02T11:43:35.678Z,30.00
2018-07-02T11:46:06.080Z,28.40
2018-07-02T11:48:43.537Z,29.50
2018-07-02T11:51:16.930Z,28.90
2018-07-02T11:53:46.235Z,28.30
2018-07-02T11:58:52.151Z,29.50
2018-07-02T12:01:29.567Z,27.20
2018-07-02T12:03:59.287Z,28.10
2018-07-02T12:06:30.175Z,30.00
2018-07-02T12:08:59.358Z,27.90
2018-07-02T12:11:28.494Z,27.60
2018-07-02T12:13:58.581Z,25.90
2018-07-02T12:16:40.776Z,26.70
2018-07-02T12:19:37.713Z,27.60
2018-07-02T12:22:06.972Z,26.00
2018-07-02T12:24:37.104Z,25.10
2018-07-02T12:27:06.324Z,25.80
2018-07-02T12:29:41.889Z,26.20
2018-07-02T12:32:14.170Z,25.90
2018-07-02T12:34:44.918Z,26.00
2018-07-02T12:37:20.737Z,24.40
2018-07-02T12:39:50.206Z,24.10
2018-07-02T12:42:20.026Z,24.20
2018-07-02T12:44:49.235Z,24.80
2018-07-02T12:47:18.383Z,24.10
2018-07-02T12:49:47.632Z,24.80
2018-07-02T12:52:17.172Z,24.20
2018-07-02T12:54:46.407Z,23.80
2018-07-02T12:57:15.703Z,25.30
2018-07-02T12:59:44.879Z,24.10
2018-07-02T13:02:14.054Z,24.70
2018-07-02T13:04:43.218Z,24.90
2018-07-02T13:07:12.404Z,25.80
2018-07-02T13:09:41.561Z,23.50
2018-07-02T13:12:10.698Z,24.10
2018-07-02T13:14:39.857Z,25.40
2018-07-02T13:17:09.012Z,24.00
2018-07-02T13:19:38.196Z,24.90
2018-07-02T13:22:07.317Z,26.00
2018-07-02T13:24:36.620Z,24.40
2018-07-02T13:27:06.188Z,25.40
2018-07-02T13:29:35.325Z,23.30
2018-07-02T13:32:04.550Z,23.70
2018-07-02T13:34:33.735Z,23.80
2018-07-02T13:37:02.963Z,23.70
2018-07-02T13:39:32.134Z,25.10
2018-07-02T13:42:01.258Z,25.60
2018-07-02T13:44:30.401Z,26.20
2018-07-02T13:46:59.515Z,25.50
2018-07-02T13:49:28.849Z,25.60
2018-07-02T13:51:58.542Z,23.50
2018-07-02T13:54:27.768Z,24.50
2018-07-02T13:56:56.947Z,24.60
2018-07-02T13:59:26.116Z,25.20
2018-07-02T14:01:55.295Z,25.00
2018-07-02T14:04:24.454Z,24.80
2018-07-02T14:06:53.638Z,25.40
2018-07-02T14:09:22.769Z,27.20
2018-07-02T14:11:51.897Z,25.90
2018-07-02T14:14:21.082Z,24.30
2018-07-02T14:16:50.364Z,24.00
2018-07-02T14:19:19.538Z,23.50
2018-07-02T14:21:48.771Z,24.90
2018-07-02T14:24:17.916Z,24.00
2018-07-02T14:26:47.122Z,23.60
2018-07-02T14:29:16.437Z,25.10
2018-07-02T14:31:45.641Z,23.40
2018-07-02T14:34:14.829Z,23.90
2018-07-02T14:36:44.027Z,24.60
2018-07-02T14:39:13.854Z,25.70
2018-07-02T14:41:43.027Z,24.50
2018-07-02T14:44:12.152Z,24.20
2018-07-02T14:46:44.678Z,24.30
2018-07-02T14:49:17.181Z,24.00
2018-07-02T14:51:48.075Z,26.20
2018-07-02T14:54:22.043Z,24.90
2018-07-02T14:56:51.799Z,25.80
2018-07-02T14:59:22.648Z,25.00
2018-07-02T15:01:53.178Z,24.10
2018-07-02T15:04:22.282Z,24.60
2018-07-02T15:06:59.435Z,24.90
2018-07-02T15:09:31.339Z,24.70
2018-07-02T15:12:06.977Z,24.90
2018-07-02T15:14:53.194Z,24.50
2018-07-02T15:17:27.293Z,24.40
2018-07-02T15:20:01.344Z,25.60
2018-07-02T15:22:30.706Z,25.40
2018-07-02T15:25:03.877Z,24.30
2018-07-02T15:27:38.889Z,24.60
2018-07-02T15:30:09.777Z,24.40
2018-07-02T15:32:39.387Z,24.10
2018-07-02T15:35:14.600Z,24.40
2018-07-02T15:37:44.051Z,24.30
2018-07-02T15:40:15.823Z,24.80
2018-07-02T15:42:46.543Z,25.70
2018-07-02T15:45:15.683Z,25.10
2018-07-02T15:47:45.063Z,24.30
2018-07-02T15:50:17.767Z,24.40
2018-07-02T15:52:49.774Z,23.30
2018-07-02T15:57:52.688Z,24.70
2018-07-02T16:00:26.538Z,24.30
2018-07-02T16:02:58.623Z,24.80
2018-07-02T16:05:27.926Z,25.40
2018-07-02T16:07:57.206Z,24.70
2018-07-02T16:10:27.590Z,24.40
2018-07-02T16:12:57.179Z,23.10
2018-07-02T16:15:26.292Z,24.20
2018-07-02T16:17:55.399Z,24.70
2018-07-02T16:20:24.624Z,24.20
2018-07-02T16:22:53.882Z,24.90
2018-07-02T16:25:23.387Z,25.60
2018-07-02T16:27:52.832Z,24.30
2018-07-02T16:30:22.032Z,24.10
2018-07-02T16:32:51.207Z,24.70
2018-07-02T16:35:20.361Z,24.50
2018-07-02T16:37:49.539Z,24.30
2018-07-02T16:40:18.679Z,25.30
2018-07-02T16:42:48.276Z,25.40
2018-07-02T16:45:17.425Z,25.50
2018-07-02T16:47:46.666Z,25.10
2018-07-02T16:52:44.738Z,25.00
2018-07-02T16:55:13.866Z,25.40
2018-07-02T16:57:43.017Z,24.90
2018-07-02T17:00:12.244Z,25.50
2018-07-02T17:05:10.769Z,25.70
2018-07-02T17:07:40.839Z,25.70
2018-07-02T17:10:24.930Z,26.50
2018-07-02T17:13:12.697Z,26.50
2018-07-02T17:16:18.701Z,27.10
2018-07-02T17:18:52.235Z,26.70
2018-07-02T17:21:26.031Z,26.30
2018-07-02T17:24:03.606Z,26.00
2018-07-02T17:26:34.083Z,26.30
2018-07-02T17:29:04.721Z,26.70
2018-07-02T17:34:12.515Z,26.40
2018-07-02T17:36:56.029Z,26.30
2018-07-02T17:42:04.121Z,26.40
2018-07-02T17:44:34.598Z,26.30
2018-07-02T17:47:11.797Z,26.50
2018-07-02T17:49:41.094Z,27.10
2018-07-02T17:52:11.184Z,26.80
2018-07-02T17:54:40.429Z,27.90
2018-07-02T17:57:12.502Z,27.30
2018-07-02T17:59:42.357Z,27.00
2018-07-02T18:04:45.206Z,27.50
2018-07-02T18:07:33.296Z,26.80
2018-07-02T18:10:04.243Z,28.10
2018-07-02T18:12:33.427Z,27.90
2018-07-02T18:15:02.540Z,28.00
2018-07-02T18:17:32.462Z,28.20
2018-07-02T18:20:01.770Z,28.30
2018-07-02T18:22:31.408Z,28.40
2018-07-02T18:25:00.563Z,28.50
2018-07-02T18:27:29.747Z,28.80
2018-07-02T18:34:59.906Z,28.60
2018-07-02T18:37:29.182Z,28.70
2018-07-02T18:39:58.396Z,29.70
2018-07-02T18:42:27.677Z,29.70
2018-07-02T18:44:56.856Z,29.30
2018-07-02T18:47:28.048Z,29.70
2018-07-02T18:49:57.261Z,29.70
2018-07-02T18:52:26.531Z,29.70
2018-07-02T18:54:55.738Z,30.30
2018-07-02T18:57:28.920Z,29.60
2018-07-02T18:59:58.223Z,30.20
2018-07-02T19:02:27.425Z,30.40
2018-07-02T19:04:56.658Z,31.90
2018-07-02T19:07:25.810Z,33.40
2018-07-02T19:12:23.728Z,35.60
2018-07-02T19:14:52.918Z,37.00
2018-07-02T19:17:23.745Z,37.70
2018-07-02T19:19:55.272Z,38.20
2018-07-02T19:22:24.466Z,39.50
2018-07-02T19:24:59.581Z,40.70
2018-07-02T19:27:29.754Z,40.40
2018-07-02T19:30:01.326Z,40.50
2018-07-02T19:32:33.948Z,40.30
2018-07-02T19:35:08.999Z,40.20
2018-07-02T19:37:38.578Z,40.70
2018-07-02T19:40:11.752Z,40.60
2018-07-02T19:45:14.651Z,41.40
2018-07-02T19:47:43.799Z,41.80
2018-07-02T19:50:12.956Z,42.00
2018-07-02T19:52:42.387Z,42.20
2018-07-02T19:57:42.433Z,42.70
2018-07-02T20:00:12.496Z,43.20
2018-07-02T20:02:46.121Z,43.20
2018-07-02T20:05:15.280Z,43.20
2018-07-02T20:07:49.843Z,44.20
2018-07-02T20:10:18.982Z,44.30
2018-07-02T20:12:48.263Z,44.00
2018-07-02T20:15:17.444Z,44.50
2018-07-02T20:20:15.439Z,45.50
2018-07-02T20:25:13.264Z,46.60
2018-07-02T20:27:42.365Z,47.10
2018-07-02T20:30:11.533Z,47.50
2018-07-02T20:32:40.997Z,47.70
2018-07-02T20:35:10.147Z,48.30
2018-07-02T20:37:41.084Z,49.30
2018-07-02T20:40:10.309Z,49.50
2018-07-02T20:42:39.548Z,49.40
2018-07-02T20:45:09.459Z,50.00
2018-07-02T20:50:07.381Z,50.70
2018-07-02T20:52:36.576Z,50.60
2018-07-02T20:55:06.034Z,51.40
2018-07-02T20:57:36.082Z,51.40
2018-07-02T21:00:06.726Z,52.20
2018-07-02T21:02:35.937Z,52.90
2018-07-02T21:05:05.305Z,52.20
2018-07-02T21:07:34.489Z,52.60
2018-07-02T21:10:04.063Z,52.50
2018-07-02T21:13:02.030Z,52.50
2018-07-02T21:15:35.767Z,53.50
2018-07-02T21:18:07.049Z,52.70
2018-07-02T21:20:36.228Z,52.70
2018-07-02T21:23:05.459Z,53.20
2018-07-02T21:25:34.775Z,53.10
2018-07-02T21:28:03.982Z,53.80
2018-07-02T21:30:33.177Z,54.10
2018-07-02T21:33:02.836Z,53.80
2018-07-02T21:35:31.983Z,53.60
2018-07-02T21:38:01.798Z,54.30
2018-07-02T21:40:31.141Z,54.10
2018-07-02T21:43:00.326Z,55.10
2018-07-02T21:45:29.599Z,54.80
2018-07-02T21:47:59.059Z,55.60
2018-07-02T21:50:28.423Z,55.00
2018-07-02T21:53:00.367Z,55.70
2018-07-02T21:55:31.611Z,56.50
2018-07-02T21:58:01.259Z,55.50
2018-07-02T22:03:06.247Z,56.00
2018-07-02T22:05:35.872Z,56.10
2018-07-02T22:08:09.740Z,56.60
2018-07-02T22:10:44.741Z,57.50
2018-07-02T22:13:13.938Z,57.10
2018-07-02T22:15:47.635Z,58.20
2018-07-02T22:18:22.915Z,57.10
2018-07-02T22:20:54.005Z,57.40
2018-07-02T22:23:29.022Z,57.90
2018-07-02T22:25:58.427Z,57.50
2018-07-02T22:28:30.031Z,58.10
2018-07-02T22:31:00.765Z,57.50
2018-07-02T22:33:38.168Z,58.30
2018-07-02T22:36:07.576Z,58.80
2018-07-02T22:38:36.951Z,59.00
2018-07-02T22:41:06.159Z,59.40
2018-07-02T22:43:35.272Z,60.40
2018-07-02T22:46:04.668Z,60.70
2018-07-02T22:48:33.809Z,60.50
2018-07-02T22:51:02.991Z,60.20
2018-07-02T22:53:32.195Z,60.20
2018-07-02T22:56:03.185Z,60.00
2018-07-02T22:58:32.430Z,60.30
2018-07-02T23:01:02.035Z,60.80
2018-07-02T23:03:31.163Z,60.80
2018-07-02T23:06:00.353Z,61.40
2018-07-02T23:08:29.480Z,61.90
2018-07-02T23:10:58.705Z,61.90
2018-07-02T23:13:27.874Z,61.80
2018-07-02T23:16:01.968Z,63.40
2018-07-02T23:18:33.136Z,63.20
2018-07-02T23:21:02.477Z,62.70
2018-07-02T23:23:31.932Z,63.30
2018-07-02T23:26:01.040Z,62.50
2018-07-02T23:28:30.253Z,63.00
2018-07-02T23:30:59.672Z,62.50
2018-07-02T23:33:28.816Z,63.00
2018-07-02T23:35:58.384Z,62.50
2018-07-02T23:38:27.507Z,62.80
2018-07-02T23:40:56.684Z,63.40
2018-07-02T23:43:32.678Z,63.60
2018-07-02T23:46:01.838Z,64.20
2018-07-02T23:48:30.947Z,64.50
2018-07-02T23:51:07.865Z,64.90
2018-07-02T23:53:37.004Z,64.80
2018-07-02T23:56:06.564Z,65.10
2018-07-02T23:58:35.698Z,64.80
